createdAt,value
2016-06-08T00:00:08.650Z,1016.98
2016-06-08T00:00:18.652Z,1017
2016-06-08T00:00:28.636Z,1016.96
2016-06-08T00:00:38.652Z,1017.02
2016-06-08T00:00:48.636Z,1017.01
2016-06-08T00:00:58.636Z,1017
2016-06-08T00:01:08.620Z,1017.03
2016-06-08T00:01:18.624Z,1016.98
2016-06-08T00:01:28.609Z,1016.98
2016-06-08T00:01:38.624Z,1016.99
2016-06-08T00:01:48.671Z,1016.97
2016-06-08T00:01:58.609Z,1016.99
2016-06-08T00:02:08.609Z,1017.03
2016-06-08T00:02:18.611Z,1017.02
2016-06-08T00:02:28.689Z,1017.01
2016-06-08T00:02:38.595Z,1016.97
2016-06-08T00:02:48.580Z,1017.02
2016-06-08T00:02:58.580Z,1016.96
2016-06-08T00:03:08.580Z,1016.99
2016-06-08T00:03:18.566Z,1016.99
2016-06-08T00:03:28.566Z,1017.02
2016-06-08T00:03:38.550Z,1017
2016-06-08T00:03:48.550Z,1017.02
2016-06-08T00:03:59.144Z,1016.99
2016-06-08T00:04:08.550Z,1016.97
2016-06-08T00:04:18.538Z,1016.96
2016-06-08T00:04:28.381Z,1016.98
2016-06-08T00:04:38.522Z,1016.98
2016-06-08T00:04:48.522Z,1016.99
2016-06-08T00:04:58.522Z,1016.98
2016-06-08T00:05:08.522Z,1017.02
2016-06-08T00:05:18.509Z,1017.01
2016-06-08T00:05:28.509Z,1017.01
2016-06-08T00:05:38.509Z,1017.01
2016-06-08T00:05:48.338Z,1017
2016-06-08T00:05:58.494Z,1017
2016-06-08T00:06:08.494Z,1016.97
2016-06-08T00:06:18.481Z,1016.98
2016-06-08T00:06:28.497Z,1017.03
2016-06-08T00:06:38.466Z,1017.02
2016-06-08T00:06:48.466Z,1017.04
2016-06-08T00:06:58.466Z,1016.99
2016-06-08T00:07:08.450Z,1017.02
2016-06-08T00:07:18.468Z,1017.11
2016-06-08T00:07:28.452Z,1017.06
2016-06-08T00:07:38.452Z,1016.99
2016-06-08T00:07:48.436Z,1017.02
2016-06-08T00:07:58.280Z,1017.01
2016-06-08T00:08:08.436Z,1017.01
2016-06-08T00:08:18.439Z,1017.03
2016-06-08T00:08:28.424Z,1017.02
2016-06-08T00:08:38.408Z,1017.05
2016-06-08T00:08:48.408Z,1017.02
2016-06-08T00:08:58.252Z,1017.06
2016-06-08T00:09:08.392Z,1017.03
2016-06-08T00:09:18.395Z,1017.05
2016-06-08T00:09:28.395Z,1017.04
2016-06-08T00:09:38.380Z,1017.06
2016-06-08T00:09:48.380Z,1017.02
2016-06-08T00:09:58.380Z,1017.02
2016-06-08T00:10:08.380Z,1017.04
2016-06-08T00:10:18.366Z,1017.01
2016-06-08T00:10:28.366Z,1017.07
2016-06-08T00:10:38.366Z,1017.09
2016-06-08T00:10:48.351Z,1017.04
2016-06-08T00:10:58.210Z,1017.03
2016-06-08T00:11:08.351Z,1017.08
2016-06-08T00:11:19.010Z,1017.01
2016-06-08T00:11:28.541Z,1017.01
2016-06-08T00:11:38.338Z,1017.02
2016-06-08T00:11:48.900Z,1017.04
2016-06-08T00:11:58.338Z,1017.06
2016-06-08T00:12:08.807Z,1017.01
2016-06-08T00:12:18.699Z,1017.04
2016-06-08T00:12:28.309Z,1017.02
2016-06-08T00:12:38.309Z,1017.06
2016-06-08T00:12:48.293Z,1017.06
2016-06-08T00:12:58.309Z,1017.06
2016-06-08T00:13:08.309Z,1017.04
2016-06-08T00:13:18.296Z,1017.02
2016-06-08T00:13:28.280Z,1017.09
2016-06-08T00:13:38.296Z,1017.07
2016-06-08T00:13:48.296Z,1017.02
2016-06-08T00:13:58.265Z,1017.07
2016-06-08T00:14:08.265Z,1017.02
2016-06-08T00:14:18.252Z,1017.06
2016-06-08T00:14:28.268Z,1017.03
2016-06-08T00:14:38.252Z,1017.05
2016-06-08T00:14:48.252Z,1017.05
2016-06-08T00:14:58.252Z,1017.07
2016-06-08T00:15:08.237Z,1017.06
2016-06-08T00:15:18.224Z,1017.03
2016-06-08T00:15:28.224Z,1017.03
2016-06-08T00:15:38.224Z,1017.07
2016-06-08T00:15:48.068Z,1017.07
2016-06-08T00:15:58.208Z,1017.04
2016-06-08T00:16:08.208Z,1017.06
2016-06-08T00:16:18.196Z,1017.05
2016-06-08T00:16:28.196Z,1017.07
2016-06-08T00:16:38.211Z,1017.03
2016-06-08T00:16:48.039Z,1017.06
2016-06-08T00:16:58.180Z,1017.05
2016-06-08T00:17:08.180Z,1017.05
2016-06-08T00:17:18.182Z,1017.01
2016-06-08T00:17:28.166Z,1017.04
2016-06-08T00:17:38.166Z,1017.04
2016-06-08T00:17:48.166Z,1017.03
2016-06-08T00:17:58.151Z,1017.07
2016-06-08T00:18:08.151Z,1017.06
2016-06-08T00:18:18.154Z,1017.05
2016-06-08T00:18:28.138Z,1017.1
2016-06-08T00:18:38.138Z,1017.07
2016-06-08T00:18:48.138Z,1017.1
2016-06-08T00:18:58.123Z,1017.05
2016-06-08T00:19:08.123Z,1017.03
2016-06-08T00:19:18.125Z,1017.04
2016-06-08T00:19:28.109Z,1017.04
2016-06-08T00:19:38.109Z,1017.05
2016-06-08T00:19:48.125Z,1017.07
2016-06-08T00:19:58.093Z,1017.01
2016-06-08T00:20:08.093Z,1017.04
2016-06-08T00:20:18.128Z,1017.01
2016-06-08T00:20:28.081Z,1017.03
2016-06-08T00:20:38.081Z,1017.01
2016-06-08T00:20:48.081Z,1017.04
2016-06-08T00:20:57.940Z,1016.97
2016-06-08T00:21:08.065Z,1017.04
2016-06-08T00:21:18.068Z,1017.05
2016-06-08T00:21:28.068Z,1016.99
2016-06-08T00:21:38.052Z,1016.99
2016-06-08T00:21:48.052Z,1017.03
2016-06-08T00:21:58.052Z,1017.04
2016-06-08T00:22:08.037Z,1017.02
2016-06-08T00:22:18.040Z,1016.98
2016-06-08T00:22:28.024Z,1017.03
2016-06-08T00:22:38.024Z,1017.01
2016-06-08T00:22:48.024Z,1017.04
2016-06-08T00:22:58.024Z,1017.03
2016-06-08T00:23:08.024Z,1017
2016-06-08T00:23:18.026Z,1017.04
2016-06-08T00:23:28.011Z,1017.04
2016-06-08T00:23:38.011Z,1016.97
2016-06-08T00:23:47.995Z,1016.99
2016-06-08T00:23:57.995Z,1016.99
2016-06-08T00:24:07.995Z,1016.97
2016-06-08T00:24:17.981Z,1016.96
2016-06-08T00:24:27.981Z,1016.97
2016-06-08T00:24:37.981Z,1016.98
2016-06-08T00:24:47.966Z,1016.94
2016-06-08T00:24:57.809Z,1016.94
2016-06-08T00:25:07.950Z,1016.94
2016-06-08T00:25:17.954Z,1016.93
2016-06-08T00:25:27.954Z,1016.93
2016-06-08T00:25:37.938Z,1016.91
2016-06-08T00:25:47.954Z,1016.92
2016-06-08T00:25:57.938Z,1016.91
2016-06-08T00:26:08.063Z,1016.9
2016-06-08T00:26:18.206Z,1016.91
2016-06-08T00:26:28.456Z,1016.94
2016-06-08T00:26:38.409Z,1016.9
2016-06-08T00:26:48.190Z,1016.91
2016-06-08T00:26:58.565Z,1016.88
2016-06-08T00:27:08.003Z,1016.91
2016-06-08T00:27:18.537Z,1016.88
2016-06-08T00:27:27.897Z,1016.9
2016-06-08T00:27:37.881Z,1016.9
2016-06-08T00:27:47.881Z,1016.89
2016-06-08T00:27:57.865Z,1016.88
2016-06-08T00:28:07.865Z,1016.89
2016-06-08T00:28:17.867Z,1016.95
2016-06-08T00:28:27.883Z,1016.9
2016-06-08T00:28:37.867Z,1016.9
2016-06-08T00:28:47.867Z,1016.88
2016-06-08T00:28:57.852Z,1016.86
2016-06-08T00:29:07.852Z,1016.89
2016-06-08T00:29:17.839Z,1016.87
2016-06-08T00:29:27.839Z,1016.88
2016-06-08T00:29:37.839Z,1016.92
2016-06-08T00:29:47.823Z,1016.91
2016-06-08T00:29:57.823Z,1016.89
2016-06-08T00:30:07.823Z,1016.87
2016-06-08T00:30:17.826Z,1016.89
2016-06-08T00:30:27.811Z,1016.83
2016-06-08T00:30:37.795Z,1016.88
2016-06-08T00:30:47.795Z,1016.87
2016-06-08T00:30:57.795Z,1016.84
2016-06-08T00:31:07.811Z,1016.9
2016-06-08T00:31:17.783Z,1016.85
2016-06-08T00:31:27.798Z,1016.9
2016-06-08T00:31:37.783Z,1016.85
2016-06-08T00:31:47.767Z,1016.84
2016-06-08T00:31:57.767Z,1016.9
2016-06-08T00:32:07.611Z,1016.85
2016-06-08T00:32:17.754Z,1016.84
2016-06-08T00:32:27.754Z,1016.86
2016-06-08T00:32:37.754Z,1016.92
2016-06-08T00:32:47.754Z,1016.87
2016-06-08T00:32:57.739Z,1016.86
2016-06-08T00:33:07.723Z,1016.84
2016-06-08T00:33:17.741Z,1016.88
2016-06-08T00:33:27.725Z,1016.86
2016-06-08T00:33:37.725Z,1016.89
2016-06-08T00:33:47.725Z,1016.87
2016-06-08T00:33:57.709Z,1016.85
2016-06-08T00:34:07.709Z,1016.86
2016-06-08T00:34:17.697Z,1016.84
2016-06-08T00:34:27.697Z,1016.85
2016-06-08T00:34:37.697Z,1016.81
2016-06-08T00:34:47.541Z,1016.82
2016-06-08T00:34:57.681Z,1016.88
2016-06-08T00:35:07.681Z,1016.82
2016-06-08T00:35:17.668Z,1016.82
2016-06-08T00:35:27.668Z,1016.84
2016-06-08T00:35:37.668Z,1016.86
2016-06-08T00:35:47.652Z,1016.82
2016-06-08T00:35:57.652Z,1016.86
2016-06-08T00:36:07.652Z,1016.83
2016-06-08T00:36:17.639Z,1016.82
2016-06-08T00:36:27.655Z,1016.83
2016-06-08T00:36:37.639Z,1016.84
2016-06-08T00:36:47.639Z,1016.86
2016-06-08T00:36:57.624Z,1016.83
2016-06-08T00:37:07.624Z,1016.83
2016-06-08T00:37:17.627Z,1016.85
2016-06-08T00:37:27.611Z,1016.82
2016-06-08T00:37:37.627Z,1016.84
2016-06-08T00:37:47.595Z,1016.83
2016-06-08T00:37:57.611Z,1016.84
2016-06-08T00:38:07.595Z,1016.83
2016-06-08T00:38:17.582Z,1016.86
2016-06-08T00:38:27.582Z,1016.86
2016-06-08T00:38:37.582Z,1016.82
2016-06-08T00:38:47.566Z,1016.86
2016-06-08T00:38:57.566Z,1016.81
2016-06-08T00:39:07.566Z,1016.88
2016-06-08T00:39:17.586Z,1016.87
2016-06-08T00:39:27.570Z,1016.86
2016-06-08T00:39:37.555Z,1016.83
2016-06-08T00:39:47.555Z,1016.8
2016-06-08T00:39:57.539Z,1016.87
2016-06-08T00:40:07.539Z,1016.82
2016-06-08T00:40:17.541Z,1016.81
2016-06-08T00:40:27.525Z,1016.82
2016-06-08T00:40:37.525Z,1016.86
2016-06-08T00:40:47.525Z,1016.85
2016-06-08T00:40:58.182Z,1016.86
2016-06-08T00:41:07.525Z,1016.84
2016-06-08T00:41:18.106Z,1016.85
2016-06-08T00:41:27.653Z,1016.84
2016-06-08T00:41:37.497Z,1016.87
2016-06-08T00:41:48.638Z,1016.89
2016-06-08T00:41:57.841Z,1016.86
2016-06-08T00:42:07.935Z,1016.87
2016-06-08T00:42:17.625Z,1016.84
2016-06-08T00:42:27.484Z,1016.88
2016-06-08T00:42:37.469Z,1016.89
2016-06-08T00:42:47.313Z,1016.84
2016-06-08T00:42:57.469Z,1016.9
2016-06-08T00:43:07.469Z,1016.84
2016-06-08T00:43:17.455Z,1016.86
2016-06-08T00:43:27.455Z,1016.89
2016-06-08T00:43:37.455Z,1016.87
2016-06-08T00:43:47.440Z,1016.87
2016-06-08T00:43:57.440Z,1016.86
2016-06-08T00:44:07.424Z,1016.87
2016-06-08T00:44:17.427Z,1016.89
2016-06-08T00:44:27.411Z,1016.93
2016-06-08T00:44:37.411Z,1016.93
2016-06-08T00:44:47.411Z,1016.9
2016-06-08T00:44:57.411Z,1016.83
2016-06-08T00:45:07.411Z,1016.9
2016-06-08T00:45:17.398Z,1016.88
2016-06-08T00:45:27.382Z,1016.9
2016-06-08T00:45:37.382Z,1016.89
2016-06-08T00:45:47.382Z,1016.9
2016-06-08T00:45:57.366Z,1016.95
2016-06-08T00:46:07.382Z,1016.9
2016-06-08T00:46:17.369Z,1016.9
2016-06-08T00:46:27.369Z,1016.94
2016-06-08T00:46:37.354Z,1016.89
2016-06-08T00:46:47.354Z,1016.89
2016-06-08T00:46:57.338Z,1016.92
2016-06-08T00:47:07.354Z,1016.87
2016-06-08T00:47:17.341Z,1016.9
2016-06-08T00:47:27.341Z,1016.89
2016-06-08T00:47:37.341Z,1016.89
2016-06-08T00:47:47.326Z,1016.93
2016-06-08T00:47:57.326Z,1016.91
2016-06-08T00:48:07.326Z,1016.88
2016-06-08T00:48:17.313Z,1016.93
2016-06-08T00:48:27.313Z,1016.92
2016-06-08T00:48:37.313Z,1016.94
2016-06-08T00:48:47.297Z,1016.91
2016-06-08T00:48:57.297Z,1016.91
2016-06-08T00:49:07.282Z,1016.94
2016-06-08T00:49:17.284Z,1016.95
2016-06-08T00:49:27.284Z,1016.88
2016-06-08T00:49:37.268Z,1016.87
2016-06-08T00:49:47.268Z,1016.91
2016-06-08T00:49:57.268Z,1016.91
2016-06-08T00:50:07.252Z,1016.91
2016-06-08T00:50:17.099Z,1016.95
2016-06-08T00:50:27.271Z,1016.9
2016-06-08T00:50:37.255Z,1016.93
2016-06-08T00:50:47.240Z,1016.91
2016-06-08T00:50:57.240Z,1016.9
2016-06-08T00:51:07.240Z,1016.97
2016-06-08T00:51:17.226Z,1016.94
2016-06-08T00:51:27.242Z,1016.92
2016-06-08T00:51:37.226Z,1016.95
2016-06-08T00:51:47.211Z,1016.94
2016-06-08T00:51:57.211Z,1016.93
2016-06-08T00:52:07.211Z,1016.93
2016-06-08T00:52:17.198Z,1016.89
2016-06-08T00:52:27.042Z,1016.92
2016-06-08T00:52:37.198Z,1016.93
2016-06-08T00:52:47.182Z,1016.96
2016-06-08T00:52:57.182Z,1016.92
2016-06-08T00:53:07.182Z,1016.94
2016-06-08T00:53:17.170Z,1016.95
2016-06-08T00:53:27.170Z,1016.94
2016-06-08T00:53:37.185Z,1016.94
2016-06-08T00:53:47.154Z,1016.96
2016-06-08T00:53:57.154Z,1016.91
2016-06-08T00:54:07.154Z,1016.95
2016-06-08T00:54:17.156Z,1016.92
2016-06-08T00:54:27.140Z,1016.94
2016-06-08T00:54:37.140Z,1016.92
2016-06-08T00:54:47.156Z,1016.95
2016-06-08T00:54:57.125Z,1016.92
2016-06-08T00:55:07.125Z,1016.93
2016-06-08T00:55:17.129Z,1016.88
2016-06-08T00:55:27.113Z,1016.93
2016-06-08T00:55:37.113Z,1016.94
2016-06-08T00:55:47.113Z,1016.95
2016-06-08T00:55:58.457Z,1016.91
2016-06-08T00:56:07.098Z,1016.94
2016-06-08T00:56:18.178Z,1016.97
2016-06-08T00:56:27.084Z,1016.89
2016-06-08T00:56:36.928Z,1016.91
2016-06-08T00:56:47.084Z,1016.93
2016-06-08T00:56:57.068Z,1016.92
2016-06-08T00:57:07.068Z,1016.92
2016-06-08T00:57:17.087Z,1016.89
2016-06-08T00:57:27.071Z,1016.91
2016-06-08T00:57:37.056Z,1016.93
2016-06-08T00:57:47.040Z,1016.89
2016-06-08T00:57:57.040Z,1016.91
2016-06-08T00:58:07.040Z,1016.92
2016-06-08T00:58:17.043Z,1016.94
2016-06-08T00:58:27.027Z,1016.86
2016-06-08T00:58:37.027Z,1016.89
2016-06-08T00:58:47.012Z,1016.9
2016-06-08T00:58:57.012Z,1016.87
2016-06-08T00:59:07.012Z,1016.88
2016-06-08T00:59:16.998Z,1016.89
2016-06-08T00:59:27.014Z,1016.88
2016-06-08T00:59:36.998Z,1016.9
2016-06-08T00:59:46.983Z,1016.89
2016-06-08T00:59:56.983Z,1016.84
2016-06-08T01:00:06.983Z,1016.88
2016-06-08T01:00:16.986Z,1016.87
2016-06-08T01:00:26.986Z,1016.89
2016-06-08T01:00:36.970Z,1016.9
2016-06-08T01:00:46.954Z,1016.88
2016-06-08T01:00:56.954Z,1016.87
2016-06-08T01:01:06.970Z,1016.87
2016-06-08T01:01:16.941Z,1016.91
2016-06-08T01:01:26.956Z,1016.89
2016-06-08T01:01:36.956Z,1016.88
2016-06-08T01:01:46.941Z,1016.91
2016-06-08T01:01:56.925Z,1016.87
2016-06-08T01:02:06.925Z,1016.92
2016-06-08T01:02:16.928Z,1016.88
2016-06-08T01:02:26.928Z,1016.88
2016-06-08T01:02:36.912Z,1016.85
2016-06-08T01:02:46.912Z,1016.88
2016-06-08T01:02:56.756Z,1016.86
2016-06-08T01:03:06.897Z,1016.83
2016-06-08T01:03:16.900Z,1016.85
2016-06-08T01:03:26.884Z,1016.92
2016-06-08T01:03:36.900Z,1016.91
2016-06-08T01:03:46.900Z,1016.85
2016-06-08T01:03:56.869Z,1016.86
2016-06-08T01:04:06.869Z,1016.86
2016-06-08T01:04:16.869Z,1016.84
2016-06-08T01:04:26.872Z,1016.82
2016-06-08T01:04:36.856Z,1016.82
2016-06-08T01:04:46.856Z,1016.8
2016-06-08T01:04:56.840Z,1016.79
2016-06-08T01:05:06.840Z,1016.86
2016-06-08T01:05:16.840Z,1016.79
2016-06-08T01:05:26.858Z,1016.77
2016-06-08T01:05:36.827Z,1016.85
2016-06-08T01:05:46.827Z,1016.85
2016-06-08T01:05:56.842Z,1016.84
2016-06-08T01:06:06.811Z,1016.81
2016-06-08T01:06:16.811Z,1016.8
2016-06-08T01:06:26.814Z,1016.81
2016-06-08T01:06:36.798Z,1016.84
2016-06-08T01:06:46.783Z,1016.78
2016-06-08T01:06:56.798Z,1016.82
2016-06-08T01:07:06.783Z,1016.81
2016-06-08T01:07:16.783Z,1016.79
2016-06-08T01:07:26.785Z,1016.84
2016-06-08T01:07:36.769Z,1016.79
2016-06-08T01:07:46.769Z,1016.8
2016-06-08T01:07:56.769Z,1016.81
2016-06-08T01:08:06.754Z,1016.79
2016-06-08T01:08:16.754Z,1016.77
2016-06-08T01:08:26.741Z,1016.78
2016-06-08T01:08:36.757Z,1016.8
2016-06-08T01:08:46.741Z,1016.79
2016-06-08T01:08:56.741Z,1016.76
2016-06-08T01:09:06.741Z,1016.8
2016-06-08T01:09:16.725Z,1016.8
2016-06-08T01:09:26.744Z,1016.81
2016-06-08T01:09:36.728Z,1016.81
2016-06-08T01:09:46.572Z,1016.76
2016-06-08T01:09:56.556Z,1016.81
2016-06-08T01:10:06.713Z,1016.8
2016-06-08T01:10:16.541Z,1016.87
2016-06-08T01:10:26.543Z,1016.81
2016-06-08T01:10:36.543Z,1016.82
2016-06-08T01:10:46.558Z,1016.8
2016-06-08T01:10:56.558Z,1016.83
2016-06-08T01:11:06.558Z,1016.84
2016-06-08T01:11:16.699Z,1016.86
2016-06-08T01:11:27.641Z,1016.79
2016-06-08T01:11:37.000Z,1016.84
2016-06-08T01:11:47.109Z,1016.83
2016-06-08T01:11:57.422Z,1016.83
2016-06-08T01:12:07.156Z,1016.84
2016-06-08T01:12:16.672Z,1016.85
2016-06-08T01:12:26.736Z,1016.85
2016-06-08T01:12:36.627Z,1016.81
2016-06-08T01:12:46.627Z,1016.83
2016-06-08T01:12:56.627Z,1016.82
2016-06-08T01:13:06.611Z,1016.79
2016-06-08T01:13:16.611Z,1016.8
2016-06-08T01:13:26.614Z,1016.81
2016-06-08T01:13:36.614Z,1016.77
2016-06-08T01:13:46.599Z,1016.83
2016-06-08T01:13:56.599Z,1016.79
2016-06-08T01:14:06.599Z,1016.81
2016-06-08T01:14:16.583Z,1016.79
2016-06-08T01:14:26.586Z,1016.81
2016-06-08T01:14:36.586Z,1016.84
2016-06-08T01:14:46.570Z,1016.78
2016-06-08T01:14:56.570Z,1016.8
2016-06-08T01:15:06.570Z,1016.82
2016-06-08T01:15:16.555Z,1016.82
2016-06-08T01:15:26.557Z,1016.82
2016-06-08T01:15:36.557Z,1016.76
2016-06-08T01:15:46.541Z,1016.74
2016-06-08T01:15:56.541Z,1016.78
2016-06-08T01:16:06.541Z,1016.77
2016-06-08T01:16:16.526Z,1016.79
2016-06-08T01:16:26.529Z,1016.77
2016-06-08T01:16:36.529Z,1016.78
2016-06-08T01:16:46.357Z,1016.78
2016-06-08T01:16:56.513Z,1016.81
2016-06-08T01:17:06.513Z,1016.77
2016-06-08T01:17:16.529Z,1016.76
2016-06-08T01:17:26.499Z,1016.82
2016-06-08T01:17:36.484Z,1016.76
2016-06-08T01:17:46.484Z,1016.79
2016-06-08T01:17:56.499Z,1016.78
2016-06-08T01:18:06.484Z,1016.75
2016-06-08T01:18:16.484Z,1016.75
2016-06-08T01:18:26.455Z,1016.8
2016-06-08T01:18:36.455Z,1016.81
2016-06-08T01:18:46.471Z,1016.76
2016-06-08T01:18:56.455Z,1016.78
2016-06-08T01:19:06.299Z,1016.83
2016-06-08T01:19:16.440Z,1016.75
2016-06-08T01:19:26.568Z,1016.77
2016-06-08T01:19:36.443Z,1016.79
2016-06-08T01:19:46.427Z,1016.82
2016-06-08T01:19:56.427Z,1016.76
2016-06-08T01:20:06.427Z,1016.72
2016-06-08T01:20:16.412Z,1016.74
2016-06-08T01:20:26.415Z,1016.72
2016-06-08T01:20:36.399Z,1016.72
2016-06-08T01:20:46.399Z,1016.77
2016-06-08T01:20:56.415Z,1016.76
2016-06-08T01:21:06.399Z,1016.7
2016-06-08T01:21:16.383Z,1016.74
2016-06-08T01:21:26.385Z,1016.71
2016-06-08T01:21:36.385Z,1016.73
2016-06-08T01:21:46.370Z,1016.72
2016-06-08T01:21:56.370Z,1016.77
2016-06-08T01:22:06.370Z,1016.74
2016-06-08T01:22:16.354Z,1016.75
2016-06-08T01:22:26.357Z,1016.71
2016-06-08T01:22:36.357Z,1016.76
2016-06-08T01:22:46.357Z,1016.68
2016-06-08T01:22:56.341Z,1016.73
2016-06-08T01:23:06.341Z,1016.76
2016-06-08T01:23:16.326Z,1016.74
2016-06-08T01:23:26.329Z,1016.73
2016-06-08T01:23:36.329Z,1016.7
2016-06-08T01:23:46.313Z,1016.71
2016-06-08T01:23:56.313Z,1016.68
2016-06-08T01:24:06.313Z,1016.69
2016-06-08T01:24:16.313Z,1016.7
2016-06-08T01:24:26.159Z,1016.71
2016-06-08T01:24:36.300Z,1016.68
2016-06-08T01:24:46.300Z,1016.72
2016-06-08T01:24:56.284Z,1016.67
2016-06-08T01:25:06.284Z,1016.69
2016-06-08T01:25:16.268Z,1016.64
2016-06-08T01:25:26.271Z,1016.69
2016-06-08T01:25:36.271Z,1016.66
2016-06-08T01:25:46.271Z,1016.68
2016-06-08T01:25:56.271Z,1016.73
2016-06-08T01:26:06.256Z,1016.74
2016-06-08T01:26:16.568Z,1016.69
2016-06-08T01:26:26.133Z,1016.7
2016-06-08T01:26:37.148Z,1016.69
2016-06-08T01:26:46.242Z,1016.69
2016-06-08T01:26:56.367Z,1016.71
2016-06-08T01:27:06.492Z,1016.73
2016-06-08T01:27:16.695Z,1016.73
2016-06-08T01:27:26.230Z,1016.71
2016-06-08T01:27:36.215Z,1016.72
2016-06-08T01:27:46.199Z,1016.71
2016-06-08T01:27:56.199Z,1016.7
2016-06-08T01:28:06.199Z,1016.72
2016-06-08T01:28:16.199Z,1016.73
2016-06-08T01:28:26.186Z,1016.7
2016-06-08T01:28:36.186Z,1016.76
2016-06-08T01:28:46.186Z,1016.69
2016-06-08T01:28:56.170Z,1016.75
2016-06-08T01:29:06.170Z,1016.71
2016-06-08T01:29:16.154Z,1016.71
2016-06-08T01:29:26.173Z,1016.74
2016-06-08T01:29:36.157Z,1016.73
2016-06-08T01:29:46.157Z,1016.72
2016-06-08T01:29:56.157Z,1016.74
2016-06-08T01:30:06.142Z,1016.7
2016-06-08T01:30:16.142Z,1016.7
2016-06-08T01:30:26.145Z,1016.72
2016-06-08T01:30:36.129Z,1016.7
2016-06-08T01:30:46.129Z,1016.75
2016-06-08T01:30:56.129Z,1016.71
2016-06-08T01:31:06.113Z,1016.73
2016-06-08T01:31:16.098Z,1016.73
2016-06-08T01:31:26.100Z,1016.76
2016-06-08T01:31:36.100Z,1016.77
2016-06-08T01:31:46.100Z,1016.75
2016-06-08T01:31:56.084Z,1016.75
2016-06-08T01:32:06.084Z,1016.73
2016-06-08T01:32:16.069Z,1016.73
2016-06-08T01:32:26.072Z,1016.75
2016-06-08T01:32:36.087Z,1016.73
2016-06-08T01:32:46.072Z,1016.72
2016-06-08T01:32:56.072Z,1016.78
2016-06-08T01:33:06.056Z,1016.73
2016-06-08T01:33:16.056Z,1016.73
2016-06-08T01:33:25.902Z,1016.74
2016-06-08T01:33:36.042Z,1016.79
2016-06-08T01:33:46.042Z,1016.72
2016-06-08T01:33:56.027Z,1016.73
2016-06-08T01:34:06.027Z,1016.74
2016-06-08T01:34:16.027Z,1016.75
2016-06-08T01:34:26.014Z,1016.74
2016-06-08T01:34:36.030Z,1016.74
2016-06-08T01:34:46.014Z,1016.75
2016-06-08T01:34:56.014Z,1016.7
2016-06-08T01:35:06.014Z,1016.74
2016-06-08T01:35:15.998Z,1016.75
2016-06-08T01:35:25.986Z,1016.77
2016-06-08T01:35:35.986Z,1016.79
2016-06-08T01:35:45.986Z,1016.75
2016-06-08T01:35:55.970Z,1016.78
2016-06-08T01:36:05.970Z,1016.76
2016-06-08T01:36:15.970Z,1016.8
2016-06-08T01:36:25.973Z,1016.75
2016-06-08T01:36:35.958Z,1016.76
2016-06-08T01:36:45.958Z,1016.78
2016-06-08T01:36:55.958Z,1016.76
2016-06-08T01:37:05.942Z,1016.72
2016-06-08T01:37:15.942Z,1016.71
2016-06-08T01:37:25.944Z,1016.75
2016-06-08T01:37:35.928Z,1016.75
2016-06-08T01:37:45.928Z,1016.8
2016-06-08T01:37:55.928Z,1016.81
2016-06-08T01:38:05.913Z,1016.73
2016-06-08T01:38:15.913Z,1016.77
2016-06-08T01:38:25.916Z,1016.74
2016-06-08T01:38:35.900Z,1016.79
2016-06-08T01:38:45.900Z,1016.81
2016-06-08T01:38:55.900Z,1016.78
2016-06-08T01:39:05.900Z,1016.79
2016-06-08T01:39:15.744Z,1016.73
2016-06-08T01:39:25.871Z,1016.75
2016-06-08T01:39:35.886Z,1016.74
2016-06-08T01:39:45.871Z,1016.78
2016-06-08T01:39:55.871Z,1016.76
2016-06-08T01:40:05.871Z,1016.76
2016-06-08T01:40:15.855Z,1016.8
2016-06-08T01:40:25.858Z,1016.72
2016-06-08T01:40:35.843Z,1016.72
2016-06-08T01:40:45.843Z,1016.73
2016-06-08T01:40:55.843Z,1016.76
2016-06-08T01:41:05.827Z,1016.73
2016-06-08T01:41:15.686Z,1016.76
2016-06-08T01:41:26.236Z,1016.72
2016-06-08T01:41:36.236Z,1016.73
2016-06-08T01:41:46.064Z,1016.74
2016-06-08T01:41:55.924Z,1016.73
2016-06-08T01:42:06.221Z,1016.72
2016-06-08T01:42:15.814Z,1016.76
2016-06-08T01:42:26.113Z,1016.74
2016-06-08T01:42:35.816Z,1016.74
2016-06-08T01:42:45.644Z,1016.69
2016-06-08T01:42:55.785Z,1016.7
2016-06-08T01:43:05.785Z,1016.74
2016-06-08T01:43:15.769Z,1016.72
2016-06-08T01:43:25.773Z,1016.74
2016-06-08T01:43:35.773Z,1016.75
2016-06-08T01:43:45.758Z,1016.75
2016-06-08T01:43:55.758Z,1016.78
2016-06-08T01:44:05.742Z,1016.73
2016-06-08T01:44:15.742Z,1016.72
2016-06-08T01:44:25.744Z,1016.79
2016-06-08T01:44:35.729Z,1016.75
2016-06-08T01:44:45.729Z,1016.73
2016-06-08T01:44:55.729Z,1016.75
2016-06-08T01:45:05.744Z,1016.79
2016-06-08T01:45:15.713Z,1016.71
2016-06-08T01:45:25.716Z,1016.77
2016-06-08T01:45:35.700Z,1016.75
2016-06-08T01:45:45.544Z,1016.73
2016-06-08T01:45:55.700Z,1016.78
2016-06-08T01:46:05.685Z,1016.77
2016-06-08T01:46:15.544Z,1016.78
2016-06-08T01:46:25.688Z,1016.75
2016-06-08T01:46:35.531Z,1016.74
2016-06-08T01:46:45.672Z,1016.73
2016-06-08T01:46:55.672Z,1016.77
2016-06-08T01:47:05.656Z,1016.77
2016-06-08T01:47:15.672Z,1016.71
2016-06-08T01:47:25.658Z,1016.76
2016-06-08T01:47:35.658Z,1016.73
2016-06-08T01:47:45.643Z,1016.74
2016-06-08T01:47:55.643Z,1016.75
2016-06-08T01:48:05.643Z,1016.78
2016-06-08T01:48:15.627Z,1016.75
2016-06-08T01:48:25.630Z,1016.76
2016-06-08T01:48:35.630Z,1016.78
2016-06-08T01:48:45.615Z,1016.77
2016-06-08T01:48:55.615Z,1016.77
2016-06-08T01:49:05.615Z,1016.74
2016-06-08T01:49:15.615Z,1016.76
2016-06-08T01:49:25.601Z,1016.77
2016-06-08T01:49:35.585Z,1016.72
2016-06-08T01:49:45.601Z,1016.74
2016-06-08T01:49:55.585Z,1016.76
2016-06-08T01:50:05.570Z,1016.8
2016-06-08T01:50:15.585Z,1016.77
2016-06-08T01:50:25.573Z,1016.77
2016-06-08T01:50:35.573Z,1016.72
2016-06-08T01:50:45.573Z,1016.75
2016-06-08T01:50:55.557Z,1016.71
2016-06-08T01:51:05.557Z,1016.73
2016-06-08T01:51:15.557Z,1016.71
2016-06-08T01:51:25.544Z,1016.75
2016-06-08T01:51:35.529Z,1016.75
2016-06-08T01:51:45.529Z,1016.78
2016-06-08T01:51:55.529Z,1016.77
2016-06-08T01:52:05.529Z,1016.74
2016-06-08T01:52:15.373Z,1016.78
2016-06-08T01:52:25.516Z,1016.77
2016-06-08T01:52:35.516Z,1016.72
2016-06-08T01:52:45.501Z,1016.72
2016-06-08T01:52:55.516Z,1016.74
2016-06-08T01:53:05.501Z,1016.74
2016-06-08T01:53:15.501Z,1016.75
2016-06-08T01:53:25.503Z,1016.75
2016-06-08T01:53:35.487Z,1016.75
2016-06-08T01:53:45.471Z,1016.74
2016-06-08T01:53:55.471Z,1016.72
2016-06-08T01:54:05.471Z,1016.7
2016-06-08T01:54:15.456Z,1016.71
2016-06-08T01:54:25.459Z,1016.7
2016-06-08T01:54:35.474Z,1016.68
2016-06-08T01:54:45.443Z,1016.7
2016-06-08T01:54:55.443Z,1016.79
2016-06-08T01:55:05.443Z,1016.7
2016-06-08T01:55:15.427Z,1016.71
2016-06-08T01:55:25.445Z,1016.71
2016-06-08T01:55:35.429Z,1016.7
2016-06-08T01:55:45.414Z,1016.68
2016-06-08T01:55:55.414Z,1016.73
2016-06-08T01:56:05.414Z,1016.69
2016-06-08T01:56:16.101Z,1016.7
2016-06-08T01:56:25.401Z,1016.74
2016-06-08T01:56:35.761Z,1016.72
2016-06-08T01:56:45.401Z,1016.73
2016-06-08T01:56:56.886Z,1016.76
2016-06-08T01:57:05.792Z,1016.68
2016-06-08T01:57:15.604Z,1016.71
2016-06-08T01:57:26.310Z,1016.78
2016-06-08T01:57:35.404Z,1016.75
2016-06-08T01:57:45.264Z,1016.77
2016-06-08T01:57:55.357Z,1016.71
2016-06-08T01:58:05.357Z,1016.72
2016-06-08T01:58:15.342Z,1016.75
2016-06-08T01:58:25.345Z,1016.7
2016-06-08T01:58:35.345Z,1016.76
2016-06-08T01:58:45.345Z,1016.73
2016-06-08T01:58:55.173Z,1016.73
2016-06-08T01:59:05.329Z,1016.71
2016-06-08T01:59:15.313Z,1016.76
2016-06-08T01:59:25.332Z,1016.75
2016-06-08T01:59:35.316Z,1016.77
2016-06-08T01:59:45.301Z,1016.75
2016-06-08T01:59:55.316Z,1016.74
2016-06-08T02:00:05.301Z,1016.8
2016-06-08T02:00:15.301Z,1016.75
2016-06-08T02:00:25.287Z,1016.77
2016-06-08T02:00:35.287Z,1016.71
2016-06-08T02:00:45.287Z,1016.7
2016-06-08T02:00:55.272Z,1016.7
2016-06-08T02:01:05.115Z,1016.79
2016-06-08T02:01:15.256Z,1016.72
2016-06-08T02:01:25.259Z,1016.74